Time;durP1;ratioP1;P1;durP2;ratioP2;P2;SDS_P1;SDS_P2;PMS_P1;PMS_P2;Temp;Humidity;BMP_temperature;BMP_pressure;BME280_temperature;BME280_humidity;BME280_pressure;Samples;Min_cycle;Max_cycle;Signal;HPM_P1;HPM_P2
2023/10/31 00:01:32;;;;;;;0.00;0.00;;;;;;;7.68;100.00;98490.19;4923503;29;20047;-77
2023/10/31 00:04:00;;;;;;;0.00;0.00;;;;;;;7.71;100.00;98482.53;4916996;29;20039;-78
2023/10/31 00:06:26;;;;;;;0.00;0.00;;;;;;;7.83;100.00;98485.63;4905601;29;20027;-76
2023/10/31 00:08:59;;;;;;;0.00;0.00;;;;;;;7.92;100.00;98499.38;4896250;29;20036;-77
2023/10/31 00:11:24;;;;;;;0.00;0.00;;;;;;;8.16;100.00;98527.31;4917439;29;20056;-76
2023/10/31 00:13:50;;;;;;;0.00;0.00;;;;;;;7.95;100.00;98496.06;4888985;29;20028;-77
2023/10/31 00:16:20;;;;;;;0.00;0.00;;;;;;;8.08;100.00;98513.56;4909579;29;20036;-77
2023/10/31 00:18:53;;;;;;;0.00;0.00;;;;;;;7.90;100.00;98490.66;4917460;29;20032;-77
2023/10/31 00:21:19;;;;;;;0.00;0.00;;;;;;;8.18;100.00;98535.19;4901122;29;20079;-77
2023/10/31 00:23:46;;;;;;;0.00;0.00;;;;;;;8.02;100.00;98508.19;4921638;29;20031;-76
2023/10/31 00:26:12;;;;;;;0.00;0.00;;;;;;;7.80;100.00;98480.78;4917634;29;20028;-79
2023/10/31 00:28:37;;;;;;;0.00;0.00;;;;;;;7.90;100.00;98493.41;4902292;29;20468;-77
2023/10/31 00:31:03;;;;;;;0.00;0.00;;;;;;;8.00;100.00;98499.50;4915510;29;20086;-75
2023/10/31 00:33:29;;;;;;;0.00;0.00;;;;;;;8.04;100.00;98497.00;4915671;29;20040;-76
2023/10/31 00:35:55;;;;;;;0.00;0.00;;;;;;;8.11;100.00;98505.59;4912516;29;20111;-74
2023/10/31 00:38:20;;;;;;;0.00;0.00;;;;;;;8.12;100.00;98499.03;4914745;29;20095;-76
2023/10/31 00:40:46;;;;;;;0.00;0.00;;;;;;;8.42;100.00;98540.50;4911180;29;20036;-76
2023/10/31 00:43:11;;;;;;;0.00;0.00;;;;;;;8.24;100.00;98500.50;4911524;29;20385;-77
2023/10/31 00:45:37;;;;;;;0.00;0.00;;;;;;;8.31;100.00;98504.47;4913111;29;20024;-76
2023/10/31 00:48:02;;;;;;;0.00;0.00;;;;;;;8.32;100.00;98514.25;4912999;29;20024;-75
2023/10/31 00:50:28;;;;;;;0.00;0.00;;;;;;;8.28;100.00;98507.78;4907829;29;20028;-76
2023/10/31 00:52:54;;;;;;;0.00;0.00;;;;;;;8.44;100.00;98521.13;4906134;29;20110;-77
2023/10/31 00:55:19;;;;;;;0.00;0.00;;;;;;;8.43;100.00;98519.53;4924603;29;20122;-77
2023/10/31 00:57:45;;;;;;;0.00;0.00;;;;;;;8.29;100.00;98492.25;4892418;29;20044;-75
2023/10/31 01:00:11;;;;;;;0.00;0.00;;;;;;;8.50;100.00;98526.22;4898852;29;20043;-75
2023/10/31 01:02:44;;;;;;;0.00;0.00;;;;;;;8.43;100.00;98503.97;4910728;29;20028;-77
2023/10/31 01:05:10;;;;;;;0.00;0.00;;;;;;;8.61;100.00;98531.50;4897269;29;20046;-75
2023/10/31 01:07:48;;;;;;;;;;;;;;;;;;;;;
2023/10/31 01:10:16;;;;;;;0.00;0.00;;;;;;;8.41;100.00;98508.94;4908174;29;20028;-74
2023/10/31 01:12:44;;;;;;;0.00;0.00;;;;;;;8.50;100.00;98514.53;4895156;29;20091;-76
2023/10/31 01:15:10;;;;;;;0.00;0.00;;;;;;;8.60;100.00;98536.16;4907520;29;20040;-75
2023/10/31 01:20:43;;;;;;;0.00;0.00;;;;;;;8.56;100.00;98535.94;4898991;29;20103;-76
2023/10/31 01:23:27;;;;;;;0.00;0.00;;;;;;;8.24;100.00;98495.06;4908108;29;20060;-76
2023/10/31 01:25:53;;;;;;;0.10;0.10;;;;;;;8.07;100.00;98479.25;4902321;29;20034;-75
2023/10/31 01:28:48;;;;;;;0.00;0.00;;;;;;;8.41;100.00;98549.78;4898468;29;20028;-75
2023/10/31 01:31:13;;;;;;;0.00;0.00;;;;;;;8.37;100.00;98548.75;4897513;29;20475;-75
2023/10/31 01:33:38;;;;;;;0.00;0.00;;;;;;;8.12;100.00;98518.09;4898278;29;20039;-76
2023/10/31 01:36:04;;;;;;;0.00;0.00;;;;;;;8.01;100.00;98492.94;4904512;29;20028;-76
2023/10/31 01:38:30;;;;;;;0.00;0.00;;;;;;;8.15;100.00;98517.50;4910686;29;20044;-76
2023/10/31 01:40:55;;;;;;;0.00;0.00;;;;;;;8.17;100.00;98511.75;4883974;29;20126;-76
2023/10/31 01:43:37;;;;;;;0.00;0.00;;;;;;;8.10;100.00;98498.53;4905084;29;20071;-75
2023/10/31 01:46:04;;;;;;;0.00;0.00;;;;;;;8.21;100.00;98508.16;4901634;29;20557;-77
2023/10/31 01:48:31;;;;;;;0.00;0.00;;;;;;;8.28;100.00;98506.94;4912240;29;20111;-76
2023/10/31 01:51:27;;;;;;;;;;;;;;;;;;;;;
2023/10/31 01:53:56;;;;;;;0.00;0.00;;;;;;;8.39;100.00;98513.84;4895491;29;20028;-75
2023/10/31 01:56:23;;;;;;;0.00;0.00;;;;;;;8.38;100.00;98501.34;4911188;29;20024;-77
2023/10/31 01:58:49;;;;;;;0.00;0.00;;;;;;;8.64;100.00;98536.34;4890171;29;20075;-77
2023/10/31 02:01:15;;;;;;;0.00;0.00;;;;;;;8.73;100.00;98545.44;4877493;29;20115;-77
2023/10/31 02:03:40;;;;;;;0.00;0.00;;;;;;;8.56;100.00;98522.31;4893559;29;20111;-76
2023/10/31 02:06:06;;;;;;;0.00;0.00;;;;;;;8.54;100.00;98521.81;4908043;29;20051;-76
2023/10/31 02:08:42;;;;;;;;;;;;;;;;;;;;;
2023/10/31 02:11:09;;;;;;;0.00;0.00;;;;;;;8.64;100.00;98514.56;4910276;29;20035;-74
2023/10/31 02:13:41;;;;;;;0.00;0.00;;;;;;;8.84;100.00;98557.78;4893661;29;20505;-75
2023/10/31 02:16:14;;;;;;;0.00;0.00;;;;;;;8.81;100.00;98552.94;4890648;29;20087;-75
2023/10/31 02:18:40;;;;;;;0.00;0.00;;;;;;;8.54;100.00;98532.69;4908266;29;20028;-76
2023/10/31 02:21:05;;;;;;;0.00;0.00;;;;;;;8.28;100.00;98512.41;4894271;29;20091;-75
2023/10/31 02:23:56;;;;;;;0.00;0.00;;;;;;;8.23;100.00;98526.13;4897481;29;20087;-76
2023/10/31 02:26:21;;;;;;;0.00;0.00;;;;;;;7.98;100.00;98507.16;4896202;29;20043;-76
2023/10/31 02:28:49;;;;;;;0.10;0.10;;;;;;;8.05;100.00;98523.13;4902753;29;20040;-75
2023/10/31 02:31:14;;;;;;;0.00;0.00;;;;;;;8.19;100.00;98543.03;4898697;29;20063;-76
2023/10/31 02:33:40;;;;;;;0.00;0.00;;;;;;;7.97;100.00;98502.81;4920232;29;20114;-75
2023/10/31 02:36:05;;;;;;;0.00;0.00;;;;;;;8.21;100.00;98534.56;4920172;29;20043;-75
2023/10/31 02:38:31;;;;;;;0.00;0.00;;;;;;;8.31;100.00;98550.75;4911898;29;20048;-74
2023/10/31 02:40:58;;;;;;;0.00;0.00;;;;;;;8.20;100.00;98517.41;4929704;29;20052;-75
2023/10/31 02:43:24;;;;;;;0.00;0.00;;;;;;;8.29;100.00;98524.91;4906570;29;20028;-74
2023/10/31 02:45:57;;;;;;;0.00;0.00;;;;;;;8.37;100.00;98527.78;4913054;29;20025;-76
2023/10/31 02:48:26;;;;;;;0.00;0.00;;;;;;;8.31;100.00;98511.81;4907306;29;20031;-76
2023/10/31 02:50:52;;;;;;;0.00;0.00;;;;;;;8.46;100.00;98529.84;4913990;29;20058;-74
2023/10/31 02:53:30;;;;;;;;;;;;;;;;;;;;;
2023/10/31 02:55:56;;;;;;;0.00;0.00;;;;;;;8.40;100.00;98529.09;4909445;29;20039;-76
2023/10/31 02:58:24;;;;;;;0.00;0.00;;;;;;;8.33;100.00;98510.41;4916046;29;20032;-74
2023/10/31 03:00:57;;;;;;;0.00;0.00;;;;;;;8.30;100.00;98504.75;4908617;29;20039;-75
2023/10/31 03:03:22;;;;;;;0.00;0.00;;;;;;;8.32;100.00;98514.25;4897541;29;20136;-75
2023/10/31 03:05:53;;;;;;;0.00;0.00;;;;;;;8.34;100.00;98517.47;4919419;29;20028;-74
2023/10/31 03:08:20;;;;;;;0.00;0.00;;;;;;;8.35;100.00;98512.81;4902646;29;20036;-75
2023/10/31 03:10:49;;;;;;;0.00;0.00;;;;;;;8.14;100.00;98490.59;4902183;29;20027;-74
2023/10/31 03:13:15;;;;;;;0.00;0.00;;;;;;;8.29;100.00;98531.16;4895838;29;20035;-75
2023/10/31 03:15:41;;;;;;;0.00;0.00;;;;;;;8.08;100.00;98503.47;4919425;29;20035;-75
2023/10/31 03:18:06;;;;;;;0.00;0.00;;;;;;;8.09;100.00;98499.66;4902250;29;20090;-75
2023/10/31 03:20:40;;;;;;;0.00;0.00;;;;;;;8.13;100.00;98510.72;4917079;29;20076;-74
2023/10/31 03:23:09;;;;;;;0.00;0.00;;;;;;;8.22;100.00;98525.31;4898165;29;20040;-75
2023/10/31 03:25:34;;;;;;;0.00;0.00;;;;;;;8.23;100.00;98537.00;4910350;29;20087;-74
2023/10/31 03:28:02;;;;;;;0.00;0.00;;;;;;;8.04;100.00;98521.50;4895734;29;20024;-74
2023/10/31 03:30:37;;;;;;;0.00;0.00;;;;;;;7.92;100.00;98504.81;4891009;29;20058;-74
2023/10/31 03:33:04;;;;;;;0.00;0.00;;;;;;;7.82;100.00;98517.44;4909168;29;20306;-74
2023/10/31 03:35:29;;;;;;;0.00;0.00;;;;;;;7.94;100.00;98535.25;4910433;29;20368;-74
2023/10/31 03:38:06;;;;;;;0.00;0.00;;;;;;;7.77;100.00;98514.81;4907221;29;20052;-73
2023/10/31 03:40:34;;;;;;;0.00;0.00;;;;;;;7.78;100.00;98518.34;4893581;29;20501;-73
2023/10/31 03:43:02;;;;;;;0.00;0.00;;;;;;;7.98;100.00;98547.16;4914591;29;20554;-74
2023/10/31 03:45:27;;;;;;;0.00;0.00;;;;;;;7.88;100.00;98520.09;4908036;29;20115;-74
2023/10/31 03:47:53;;;;;;;0.00;0.00;;;;;;;7.93;100.00;98525.47;4912219;29;20162;-73
2023/10/31 03:50:18;;;;;;;0.00;0.00;;;;;;;8.00;100.00;98528.63;4907755;29;20423;-75
2023/10/31 03:52:43;;;;;;;0.10;0.10;;;;;;;8.04;100.00;98540.53;4909346;29;20083;-74
2023/10/31 03:55:09;;;;;;;0.00;0.00;;;;;;;7.95;100.00;98537.69;4892734;29;20065;-75
2023/10/31 03:57:34;;;;;;;0.00;0.00;;;;;;;8.04;100.00;98562.31;4909332;29;20087;-74
2023/10/31 04:00:00;;;;;;;0.00;0.00;;;;;;;7.70;100.00;98522.53;4905775;29;20491;-74
2023/10/31 04:02:26;;;;;;;0.00;0.00;;;;;;;7.60;100.00;98519.97;4911569;29;20151;-73
2023/10/31 04:04:51;;;;;;;0.00;0.00;;;;;;;7.63;100.00;98532.97;4915410;29;20039;-74
2023/10/31 04:07:17;;;;;;;0.00;0.00;;;;;;;7.93;100.00;98567.13;4904509;29;20059;-76
2023/10/31 04:09:43;;;;;;;0.00;0.00;;;;;;;7.70;100.00;98519.81;4882312;29;20135;-76
2023/10/31 04:12:08;;;;;;;0.00;0.00;;;;;;;7.92;100.00;98551.88;4923267;29;20024;-77
2023/10/31 04:14:34;;;;;;;0.00;0.00;;;;;;;8.11;100.00;98568.22;4897228;29;20343;-77
2023/10/31 04:16:59;;;;;;;0.00;0.00;;;;;;;7.92;100.00;98532.81;4906198;29;20083;-77
2023/10/31 04:19:25;;;;;;;0.00;0.00;;;;;;;7.89;100.00;98536.13;4914588;29;20034;-77
2023/10/31 04:21:55;;;;;;;0.00;0.00;;;;;;;7.90;100.00;98556.81;4912212;29;20028;-76
2023/10/31 04:24:23;;;;;;;0.00;0.00;;;;;;;7.96;100.00;98560.28;4906377;29;20020;-76
2023/10/31 04:26:48;;;;;;;0.00;0.00;;;;;;;8.00;100.00;98561.28;4901453;29;20044;-76
2023/10/31 04:29:14;;;;;;;0.00;0.00;;;;;;;7.94;100.00;98551.59;4910850;29;20036;-77
2023/10/31 04:31:39;;;;;;;0.00;0.00;;;;;;;8.08;100.00;98568.81;4899978;29;20072;-75
2023/10/31 04:34:04;;;;;;;0.00;0.00;;;;;;;8.06;100.00;98579.19;4907246;29;20036;-76
2023/10/31 04:36:32;;;;;;;0.00;0.00;;;;;;;7.85;100.00;98565.84;4912460;29;20486;-76
2023/10/31 04:38:58;;;;;;;0.00;0.00;;;;;;;7.97;100.00;98594.53;4890047;29;20055;-75
2023/10/31 04:41:29;;;;;;;0.00;0.00;;;;;;;7.89;100.00;98603.38;4921461;29;20032;-75
2023/10/31 04:43:55;;;;;;;0.00;0.00;;;;;;;7.60;100.00;98569.72;4901943;29;20032;-76
2023/10/31 04:46:20;;;;;;;0.00;0.00;;;;;;;7.59;100.00;98586.34;4914136;29;20130;-76
2023/10/31 04:48:46;;;;;;;0.00;0.00;;;;;;;7.48;100.00;98572.84;4884415;29;20035;-75
2023/10/31 04:51:16;;;;;;;0.00;0.00;;;;;;;7.66;100.00;98581.34;4915309;29;20035;-76
2023/10/31 04:53:41;;;;;;;0.00;0.00;;;;;;;8.05;100.00;98607.50;4899332;29;20056;-76
2023/10/31 04:56:21;;;;;;;0.00;0.00;;;;;;;8.21;100.00;98622.50;4915004;29;20032;-75
2023/10/31 04:58:46;;;;;;;0.00;0.00;;;;;;;8.04;100.00;98584.94;4906132;29;20067;-75
2023/10/31 05:01:15;;;;;;;0.00;0.00;;;;;;;8.16;100.00;98592.66;4874835;29;20055;-75
2023/10/31 05:03:43;;;;;;;0.00;0.00;;;;;;;8.18;100.00;98587.72;4909879;29;20028;-75
2023/10/31 05:06:11;;;;;;;0.00;0.00;;;;;;;8.17;100.00;98583.34;4881856;29;20035;-75
2023/10/31 05:08:41;;;;;;;0.00;0.00;;;;;;;8.05;100.00;98574.84;4904201;29;20027;-76
2023/10/31 05:11:08;;;;;;;0.00;0.00;;;;;;;8.16;100.00;98614.44;4892671;29;20032;-75
2023/10/31 05:13:33;;;;;;;0.00;0.00;;;;;;;7.96;100.00;98590.22;4909343;29;20665;-75
2023/10/31 05:15:58;;;;;;;0.00;0.00;;;;;;;7.67;100.00;98569.38;4912140;29;20052;-76
2023/10/31 05:18:24;;;;;;;0.00;0.00;;;;;;;7.88;100.00;98608.00;4913931;29;20027;-75
2023/10/31 05:20:59;;;;;;;0.00;0.00;;;;;;;7.69;100.00;98594.38;4908189;29;20040;-75
2023/10/31 05:23:27;;;;;;;0.00;0.00;;;;;;;7.18;100.00;98532.44;4890922;29;20060;-76
2023/10/31 05:26:00;;;;;;;0.00;0.00;;;;;;;7.41;100.00;98583.28;4913306;29;20016;-75
2023/10/31 05:28:25;;;;;;;0.10;0.10;;;;;;;7.41;100.00;98577.84;4894406;29;20116;-76
2023/10/31 05:30:53;;;;;;;0.00;0.00;;;;;;;7.43;100.00;98591.97;4909832;29;20020;-75
2023/10/31 05:33:23;;;;;;;0.00;0.00;;;;;;;7.36;100.00;98582.53;4898663;29;20036;-74
2023/10/31 05:35:48;;;;;;;0.00;0.00;;;;;;;7.34;100.00;98578.22;4907104;29;20032;-75
2023/10/31 05:38:13;;;;;;;0.00;0.00;;;;;;;7.33;100.00;98582.03;4911086;28;20111;-74
2023/10/31 05:40:39;;;;;;;0.00;0.00;;;;;;;7.23;100.00;98576.69;4895329;29;20129;-75
2023/10/31 05:43:04;;;;;;;0.00;0.00;;;;;;;7.16;100.00;98577.03;4892559;29;20032;-74
2023/10/31 05:45:32;;;;;;;0.00;0.00;;;;;;;7.06;100.00;98579.06;4908577;29;20031;-74
2023/10/31 05:47:58;;;;;;;0.00;0.00;;;;;;;6.96;100.00;98582.69;4883150;29;20111;-75
2023/10/31 05:50:24;;;;;;;0.00;0.00;;;;;;;7.11;100.00;98623.31;4906292;29;20034;-74
2023/10/31 05:52:52;;;;;;;0.00;0.00;;;;;;;6.95;100.00;98602.78;4910634;29;20926;-75
2023/10/31 05:55:17;;;;;;;0.00;0.00;;;;;;;6.92;100.00;98596.03;4907930;29;20028;-75
2023/10/31 05:57:43;;;;;;;0.00;0.00;;;;;;;7.01;100.00;98601.66;4907899;29;20031;-75
2023/10/31 06:00:09;;;;;;;0.00;0.00;;;;;;;6.82;100.00;98588.78;4903617;29;20032;-76
2023/10/31 06:02:36;;;;;;;0.00;0.00;;;;;;;6.78;100.00;98593.16;4899091;29;20036;-75
2023/10/31 06:05:13;;;;;;;0.00;0.00;;;;;;;6.82;100.00;98596.94;4899566;29;20601;-75
2023/10/31 06:07:39;;;;;;;0.00;0.00;;;;;;;6.92;100.00;98611.53;4911841;29;20095;-75
2023/10/31 06:10:05;;;;;;;0.00;0.00;;;;;;;6.88;100.00;98597.72;4917622;29;20682;-75
2023/10/31 06:12:30;;;;;;;0.00;0.00;;;;;;;6.96;100.00;98604.41;4897435;29;20538;-75
2023/10/31 06:15:01;;;;;;;0.00;0.00;;;;;;;6.91;100.00;98593.63;4889457;29;20041;-75
2023/10/31 06:17:33;;;;;;;0.00;0.00;;;;;;;7.07;100.00;98616.81;4921579;29;21180;-75
2023/10/31 06:19:59;;;;;;;0.10;0.10;;;;;;;7.01;100.00;98617.97;4916271;29;20079;-75
2023/10/31 06:22:24;;;;;;;0.00;0.00;;;;;;;7.00;100.00;98605.47;4898722;29;20024;-75
2023/10/31 06:24:58;;;;;;;0.00;0.00;;;;;;;7.14;100.00;98628.16;4921515;29;20082;-76
2023/10/31 06:27:23;;;;;;;0.00;0.00;;;;;;;7.23;100.00;98641.13;4913587;29;20083;-77
2023/10/31 06:29:56;;;;;;;0.10;0.10;;;;;;;6.91;100.00;98607.19;4915146;29;20039;-77
2023/10/31 06:32:24;;;;;;;0.00;0.00;;;;;;;7.05;100.00;98639.94;4914729;29;20031;-77
2023/10/31 06:34:51;;;;;;;0.00;0.00;;;;;;;6.96;100.00;98637.03;4903184;29;20035;-77
2023/10/31 06:37:19;;;;;;;0.00;0.00;;;;;;;6.89;100.00;98620.25;4893775;29;20032;-75
2023/10/31 06:39:57;;;;;;;0.00;0.00;;;;;;;7.26;100.00;98673.19;4899159;29;20032;-75
2023/10/31 06:42:22;;;;;;;0.00;0.00;;;;;;;7.04;100.00;98633.69;4913200;29;20027;-75
2023/10/31 06:44:48;;;;;;;0.00;0.00;;;;;;;6.86;100.00;98599.09;4918263;29;20038;-77
2023/10/31 06:47:43;;;;;;;;;;;;;;;;;;;;;
2023/10/31 06:50:09;;;;;;;0.00;0.00;;;;;;;6.71;100.00;98598.13;4910101;29;20421;-76
2023/10/31 06:52:35;;;;;;;0.00;0.00;;;;;;;7.21;100.00;98681.38;4920385;29;20110;-74
2023/10/31 06:55:03;;;;;;;0.00;0.00;;;;;;;7.22;100.00;98677.56;4909898;29;20036;-76
2023/10/31 06:57:36;;;;;;;0.00;0.00;;;;;;;7.27;100.00;98653.03;4899425;29;20020;-75
2023/10/31 07:00:01;;;;;;;0.00;0.00;;;;;;;7.48;100.00;98650.94;4911437;29;20107;-75
2023/10/31 07:02:27;;;;;;;0.00;0.00;;;;;;;7.76;100.00;98662.84;4883782;29;20032;-74
2023/10/31 07:04:52;;;;;;;0.00;0.00;;;;;;;7.94;100.00;98660.44;4896884;29;20715;-74
2023/10/31 07:07:18;;;;;;;0.00;0.00;;;;;;;8.15;100.00;98680.88;4898330;29;20112;-75
2023/10/31 07:09:47;;;;;;;0.00;0.00;;;;;;;8.28;100.00;98687.50;4896617;29;20039;-75
2023/10/31 07:12:14;;;;;;;0.10;0.10;;;;;;;8.38;100.00;98692.00;4893494;29;20032;-75
2023/10/31 07:14:40;;;;;;;0.00;0.00;;;;;;;8.32;100.00;98655.03;4917056;29;20086;-74
2023/10/31 07:17:05;;;;;;;0.10;0.10;;;;;;;8.35;100.00;98658.00;4898514;29;20043;-74
2023/10/31 07:19:33;;;;;;;0.00;0.00;;;;;;;8.62;100.00;98691.16;4896290;29;20043;-75
2023/10/31 07:22:06;;;;;;;0.00;0.00;;;;;;;8.53;100.00;98666.50;4905673;29;20062;-76
2023/10/31 07:24:36;;;;;;;0.00;0.00;;;;;;;8.28;100.00;98622.16;4910142;29;20470;-75
2023/10/31 07:27:03;;;;;;;0.00;0.00;;;;;;;8.38;100.00;98635.63;4914790;29;20024;-74
2023/10/31 07:29:29;;;;;;;0.00;0.00;;;;;;;8.38;100.00;98637.50;4919078;29;20020;-74
2023/10/31 07:31:54;;;;;;;0.00;0.00;;;;;;;8.54;100.00;98682.53;4909798;29;20063;-75
2023/10/31 07:34:29;;;;;;;0.00;0.00;;;;;;;8.47;100.00;98695.72;4908011;29;20051;-74
2023/10/31 07:36:56;;;;;;;0.00;0.00;;;;;;;8.50;100.00;98706.03;4899146;29;20086;-76
2023/10/31 07:39:22;;;;;;;0.10;0.10;;;;;;;8.34;100.00;98694.50;4909406;29;20447;-75
2023/10/31 07:41:50;;;;;;;0.00;0.00;;;;;;;8.33;100.00;98705.69;4909512;29;20032;-76
2023/10/31 07:44:22;;;;;;;0.00;0.00;;;;;;;8.24;100.00;98691.13;4908935;29;20067;-75
2023/10/31 07:46:48;;;;;;;0.00;0.00;;;;;;;8.29;100.00;98700.00;4892258;29;20051;-73
2023/10/31 07:49:13;;;;;;;0.00;0.00;;;;;;;8.32;100.00;98698.63;4917037;29;20131;-75
2023/10/31 07:51:39;;;;;;;0.00;0.00;;;;;;;8.59;100.00;98747.03;4889212;29;20028;-74
2023/10/31 07:54:05;;;;;;;0.00;0.00;;;;;;;8.42;100.00;98714.03;4896447;29;20114;-74
2023/10/31 07:56:32;;;;;;;0.00;0.00;;;;;;;8.56;100.00;98714.94;4910640;29;20114;-75
2023/10/31 07:58:58;;;;;;;0.00;0.00;;;;;;;9.06;100.00;98731.59;4906678;29;20032;-75
2023/10/31 08:01:23;;;;;;;0.00;0.00;;;;;;;9.51;100.00;98750.25;4909842;29;20797;-77
2023/10/31 08:03:51;;;;;;;0.00;0.00;;;;;;;9.54;100.00;98732.47;4911539;29;20036;-78
2023/10/31 08:06:26;;;;;;;0.00;0.00;;;;;;;9.61;100.00;98728.22;4915228;29;20039;-75
2023/10/31 08:08:51;;;;;;;0.00;0.00;;;;;;;9.75;100.00;98738.34;4904128;29;20036;-74
2023/10/31 08:11:27;;;;;;;;;;;;;;;;;;;;;
2023/10/31 08:13:55;;;;;;;0.00;0.00;;;;;;;9.83;100.00;98761.41;4894776;29;20477;-73
2023/10/31 08:16:23;;;;;;;0.00;0.00;;;;;;;9.53;100.00;98736.28;4906836;29;20426;-74
2023/10/31 08:18:49;;;;;;;0.00;0.00;;;;;;;9.48;100.00;98733.69;4906954;29;20095;-75
2023/10/31 08:21:19;;;;;;;0.00;0.00;;;;;;;9.51;100.00;98742.06;4887084;29;20055;-74
2023/10/31 08:23:47;;;;;;;0.00;0.00;;;;;;;9.94;100.00;98751.91;4889324;29;20038;-74
2023/10/31 08:26:13;;;;;;;0.00;0.00;;;;;;;10.42;100.00;98745.25;4910127;29;20032;-75
2023/10/31 08:28:38;;;;;;;0.00;0.00;;;;;;;10.71;100.00;98741.34;4908347;29;20650;-73
2023/10/31 08:31:06;;;;;;;0.00;0.00;;;;;;;10.77;100.00;98748.31;4914540;29;20028;-75
2023/10/31 08:33:32;;;;;;;0.00;0.00;;;;;;;11.16;100.00;98739.44;4899851;29;20495;-74
2023/10/31 08:36:07;;;;;;;0.00;0.00;;;;;;;11.28;100.00;98744.34;4913727;29;20035;-73
2023/10/31 08:38:32;;;;;;;0.00;0.00;;;;;;;11.28;100.00;98793.63;4919019;28;20071;-75
2023/10/31 08:40:58;;;;;;;0.00;0.00;;;;;;;10.97;100.00;98791.59;4906739;29;21353;-74
2023/10/31 08:43:25;;;;;;;0.00;0.00;;;;;;;10.73;100.00;98758.25;4904420;29;20039;-73
2023/10/31 08:46:00;;;;;;;0.00;0.00;;;;;;;10.70;100.00;98756.13;4901095;29;20717;-74
2023/10/31 08:48:26;;;;;;;0.00;0.00;;;;;;;10.61;100.00;98739.66;4896500;29;20453;-73
2023/10/31 08:50:51;;;;;;;0.00;0.00;;;;;;;11.03;100.00;98792.28;4905136;29;20356;-73
2023/10/31 08:53:19;;;;;;;0.00;0.00;;;;;;;11.94;100.00;98779.38;4898539;29;20087;-73
2023/10/31 08:55:46;;;;;;;0.00;0.00;;;;;;;12.38;100.00;98755.69;4902403;29;20387;-74
2023/10/31 08:58:18;;;;;;;0.10;0.10;;;;;;;13.56;100.00;98784.16;4907122;29;20027;-75
2023/10/31 09:00:53;;;;;;;0.00;0.00;;;;;;;14.45;100.00;98772.50;4900774;29;20036;-73
2023/10/31 09:03:18;;;;;;;0.00;0.00;;;;;;;16.31;100.00;98779.63;4911690;29;20042;-74
2023/10/31 09:05:46;;;;;;;0.00;0.00;;;;;;;17.24;100.00;98786.38;4907339;29;20028;-75
2023/10/31 09:08:11;;;;;;;0.00;0.00;;;;;;;17.58;100.00;98807.09;4904674;29;20028;-74
2023/10/31 09:10:42;;;;;;;0.00;0.00;;;;;;;18.46;100.00;98816.50;4895465;29;20507;-74
2023/10/31 09:13:09;;;;;;;0.00;0.00;;;;;;;19.92;100.00;98825.59;4895569;29;20043;-75
2023/10/31 09:15:35;;;;;;;0.00;0.00;;;;;;;21.35;92.98;98792.91;4910650;29;20051;-77
2023/10/31 09:18:01;;;;;;;0.00;0.00;;;;;;;23.05;81.59;98792.44;4901531;29;20107;-76
2023/10/31 09:20:29;;;;;;;0.00;0.00;;;;;;;23.43;78.72;98784.69;4908613;29;20446;-75
2023/10/31 09:22:55;;;;;;;0.00;0.00;;;;;;;25.75;70.82;98791.72;4914636;29;20358;-74
2023/10/31 09:25:23;;;;;;;0.00;0.00;;;;;;;27.27;66.04;98803.25;4914370;29;20032;-74
2023/10/31 09:27:56;;;;;;;0.00;0.00;;;;;;;28.06;59.29;98795.06;4906005;29;20044;-74
2023/10/31 09:30:24;;;;;;;0.00;0.00;;;;;;;29.46;54.01;98800.22;4905713;29;20088;-74
2023/10/31 09:32:49;;;;;;;0.00;0.00;;;;;;;31.41;46.91;98805.53;4867435;29;20032;-74
2023/10/31 09:35:15;;;;;;;0.00;0.00;;;;;;;31.11;45.72;98806.78;4914144;29;20085;-74
2023/10/31 09:37:48;;;;;;;0.00;0.00;;;;;;;31.66;45.22;98813.28;4887589;29;20027;-74
2023/10/31 09:40:14;;;;;;;0.00;0.00;;;;;;;31.60;42.55;98817.09;4896808;29;20135;-74
2023/10/31 09:42:42;;;;;;;0.00;0.00;;;;;;;29.52;44.63;98823.81;4900726;29;20040;-73
2023/10/31 09:45:13;;;;;;;0.00;0.00;;;;;;;29.13;45.40;98814.94;4904744;29;20024;-75
2023/10/31 09:47:43;;;;;;;0.00;0.00;;;;;;;29.81;42.46;98817.59;4891684;29;20038;-73
2023/10/31 09:50:09;;;;;;;0.00;0.00;;;;;;;30.28;42.04;98835.00;4905097;29;20043;-74
2023/10/31 09:52:42;;;;;;;0.00;0.00;;;;;;;30.62;40.50;98818.91;4904909;29;20028;-73
2023/10/31 09:55:08;;;;;;;0.00;0.00;;;;;;;31.42;36.85;98818.38;4894322;29;20487;-72
2023/10/31 09:57:33;;;;;;;0.00;0.00;;;;;;;31.96;37.11;98838.63;4892753;29;20032;-74
2023/10/31 10:00:01;;;;;;;0.00;0.00;;;;;;;32.34;35.27;98806.75;4916840;29;20031;-73
2023/10/31 10:02:39;;;;;;;;;;;;;;;;;;;;;
2023/10/31 10:05:05;;;;;;;0.00;0.00;;;;;;;32.92;33.16;98821.81;4910626;29;20054;-73
2023/10/31 10:07:34;;;;;;;0.00;0.00;;;;;;;33.45;32.34;98841.75;4910272;29;20023;-73
2023/10/31 10:10:00;;;;;;;0.00;0.00;;;;;;;33.32;30.80;98821.22;4889148;29;20036;-75
2023/10/31 10:12:26;;;;;;;0.00;0.00;;;;;;;32.94;30.87;98813.66;4910282;29;20396;-73
2023/10/31 10:14:52;;;;;;;0.00;0.00;;;;;;;32.97;30.60;98846.69;4913658;29;20502;-76
2023/10/31 10:17:21;;;;;;;0.00;0.00;;;;;;;33.79;29.54;98842.97;4904291;29;20042;-73
2023/10/31 10:19:47;;;;;;;0.00;0.00;;;;;;;34.04;29.93;98830.63;4909502;29;20046;-74
2023/10/31 10:22:15;;;;;;;0.00;0.00;;;;;;;34.51;27.02;98814.59;4902690;29;20020;-74
2023/10/31 10:24:41;;;;;;;0.00;0.00;;;;;;;34.45;26.82;98850.50;4910062;29;20032;-75
2023/10/31 10:27:10;;;;;;;0.00;0.00;;;;;;;34.19;27.04;98849.91;4887592;29;20924;-72
2023/10/31 10:29:38;;;;;;;0.00;0.00;;;;;;;33.58;27.42;98831.13;4909515;29;20036;-75
2023/10/31 10:32:28;;;;;;;0.00;0.00;;;;;;;34.40;27.73;98868.94;4912431;29;20090;-74
2023/10/31 10:34:54;;;;;;;0.00;0.00;;;;;;;34.52;26.47;98861.56;4902485;29;20075;-74
2023/10/31 10:37:21;;;;;;;0.00;0.00;;;;;;;33.20;27.60;98868.16;4899370;28;20051;-74
2023/10/31 10:40:09;;;;;;;0.00;0.00;;;;;;;30.74;28.79;98835.13;4897673;29;20048;-75
2023/10/31 10:42:48;;;;;;;0.00;0.00;;;;;;;26.48;34.50;98849.66;4902808;29;20095;-75
2023/10/31 10:45:20;;;;;;;0.00;0.00;;;;;;;23.14;40.91;98867.41;4909335;29;20032;-74
2023/10/31 10:48:07;;;;;;;;;;;;;;;;;;;;;
2023/10/31 10:50:36;;;;;;;0.00;0.00;;;;;;;20.65;47.27;98853.44;4911224;29;20024;-76
2023/10/31 10:53:18;;;;;;;0.00;0.00;;;;;;;20.23;48.68;98876.50;4907590;29;20273;-76
2023/10/31 10:55:46;;;;;;;0.00;0.00;;;;;;;20.34;49.66;98860.84;4907748;29;20029;-74
2023/10/31 10:58:21;;;;;;;0.00;0.00;;;;;;;20.23;49.74;98868.19;4905761;29;21440;-74
2023/10/31 11:00:47;;;;;;;0.00;0.00;;;;;;;20.19;49.61;98850.66;4921565;29;20428;-73
2023/10/31 11:03:14;;;;;;;0.00;0.00;;;;;;;20.08;50.56;98864.34;4903825;29;20043;-75
2023/10/31 11:05:50;;;;;;;0.00;0.00;;;;;;;19.68;51.25;98835.84;4887324;29;20122;-75
2023/10/31 11:08:16;;;;;;;0.00;0.00;;;;;;;19.06;52.66;98855.09;4896217;29;20066;-74
2023/10/31 11:10:50;;;;;;;0.00;0.00;;;;;;;18.75;55.25;98865.06;4915366;29;20063;-74
2023/10/31 11:13:16;;;;;;;0.00;0.00;;;;;;;18.95;54.57;98852.09;4908859;29;20658;-73
2023/10/31 11:15:47;;;;;;;0.00;0.00;;;;;;;19.29;54.08;98851.63;4895506;29;20040;-76
2023/10/31 11:18:18;;;;;;;0.00;0.00;;;;;;;21.56;51.03;98845.22;4891255;29;20035;-74
2023/10/31 11:20:46;;;;;;;0.00;0.00;;;;;;;26.73;41.54;98865.50;4894233;29;20092;-74
2023/10/31 11:23:13;;;;;;;0.00;0.00;;;;;;;31.28;30.32;98872.47;4894070;29;20043;-76
2023/10/31 11:25:43;;;;;;;0.00;0.00;;;;;;;32.21;27.87;98871.00;4898293;29;21093;-75
2023/10/31 11:28:18;;;;;;;0.00;0.00;;;;;;;28.72;31.96;98867.50;4910423;29;20390;-73
2023/10/31 11:30:56;;;;;;;0.00;0.00;;;;;;;25.59;36.68;98862.97;4888922;29;20151;-74
2023/10/31 11:33:24;;;;;;;0.00;0.00;;;;;;;23.59;40.44;98836.56;4910488;29;20042;-73
2023/10/31 11:35:50;;;;;;;0.00;0.00;;;;;;;23.31;42.08;98865.91;4898983;29;20042;-74
2023/10/31 11:38:18;;;;;;;0.00;0.00;;;;;;;23.81;42.37;98840.22;4909658;29;20062;-75
2023/10/31 11:40:44;;;;;;;0.00;0.00;;;;;;;25.18;39.94;98868.28;4903225;29;20066;-75
2023/10/31 11:43:11;;;;;;;0.00;0.00;;;;;;;25.63;38.37;98884.53;4910137;29;20455;-74
2023/10/31 11:45:47;;;;;;;0.00;0.00;;;;;;;27.83;34.77;98866.75;4898334;29;20489;-73
2023/10/31 11:48:12;;;;;;;0.00;0.00;;;;;;;27.74;34.00;98846.81;4911417;29;20047;-74
2023/10/31 11:50:38;;;;;;;0.00;0.00;;;;;;;26.87;34.78;98838.53;4914675;29;20056;-74
2023/10/31 11:53:12;;;;;;;0.00;0.00;;;;;;;26.66;36.75;98865.53;4913624;29;20027;-73